createdAt,value
2018-02-24T00:00:05.495Z,47
2018-02-24T00:15:07.890Z,47
2018-02-24T00:30:05.032Z,46
2018-02-24T00:45:05.472Z,46
2018-02-24T01:00:05.287Z,46
2018-02-24T01:15:08.820Z,46
2018-02-24T01:30:08.263Z,46
2018-02-24T01:45:05.132Z,46
2018-02-24T02:00:06.167Z,45
2018-02-24T02:15:08.358Z,46
2018-02-24T02:30:12.621Z,46
2018-02-24T02:45:05.421Z,46
2018-02-24T03:00:04.991Z,46
2018-02-24T03:15:05.128Z,47
2018-02-24T03:30:04.686Z,45
2018-02-24T03:45:05.440Z,45
2018-02-24T04:00:05.070Z,46
2018-02-24T04:15:05.167Z,46
2018-02-24T04:30:04.426Z,46
2018-02-24T04:45:04.412Z,46
2018-02-24T05:00:04.902Z,46
2018-02-24T05:15:05.137Z,46
2018-02-24T05:30:05.056Z,46
2018-02-24T05:45:04.993Z,45
2018-02-24T06:00:05.088Z,46
2018-02-24T06:15:05.154Z,45
2018-02-24T06:30:04.996Z,47
2018-02-24T06:45:08.229Z,47
2018-02-24T07:00:12.162Z,46
2018-02-24T07:15:05.523Z,46
2018-02-24T07:30:05.667Z,47
2018-02-24T07:45:04.856Z,47
2018-02-24T08:00:04.340Z,46
2018-02-24T08:15:04.428Z,47
2018-02-24T08:30:04.923Z,47
2018-02-24T08:45:06.561Z,47
2018-02-24T09:00:21.290Z,47
2018-02-24T09:15:05.701Z,47
2018-02-24T09:30:05.685Z,47
2018-02-24T09:45:06.312Z,47
2018-02-24T10:00:04.776Z,46
2018-02-24T10:15:04.855Z,47
2018-02-24T10:30:04.981Z,52
2018-02-24T10:45:05.282Z,46
2018-02-24T11:00:05.490Z,48
2018-02-24T11:15:05.179Z,47
2018-02-24T11:30:08.120Z,47
2018-02-24T11:45:06.389Z,47
2018-02-24T12:00:05.955Z,47
2018-02-24T12:15:04.467Z,47
2018-02-24T12:30:05.548Z,47
2018-02-24T12:45:05.374Z,47
2018-02-24T13:00:12.299Z,47
2018-02-24T13:15:04.861Z,47
2018-02-24T13:30:05.290Z,49
2018-02-24T13:45:04.940Z,46
2018-02-24T14:00:04.998Z,47
2018-02-24T14:15:04.959Z,47
2018-02-24T14:30:04.729Z,47
2018-02-24T14:45:05.343Z,47
2018-02-24T15:00:04.711Z,46
2018-02-24T15:15:08.339Z,47
2018-02-24T15:30:05.305Z,46
2018-02-24T15:45:04.871Z,46
2018-02-24T16:00:08.180Z,46
2018-02-24T16:15:06.017Z,45
2018-02-24T16:30:05.344Z,45
2018-02-24T16:45:04.832Z,45
2018-02-24T17:00:04.921Z,45
2018-02-24T17:15:04.395Z,45
2018-02-24T17:30:06.318Z,44
2018-02-24T17:47:15.028Z,44
2018-02-24T18:00:04.503Z,43
2018-02-24T18:15:04.913Z,44
2018-02-24T18:30:05.060Z,44
2018-02-24T18:45:05.030Z,43
2018-02-24T19:00:04.505Z,44
2018-02-24T19:15:06.079Z,43
2018-02-24T19:30:04.719Z,44
2018-02-24T19:45:04.808Z,44
2018-02-24T20:00:05.378Z,43
2018-02-24T20:15:05.917Z,43
2018-02-24T20:30:05.279Z,43
2018-02-24T20:45:05.369Z,42
2018-02-24T21:00:04.787Z,42
2018-02-24T21:15:05.232Z,43
2018-02-24T21:30:04.916Z,43
2018-02-24T21:45:04.683Z,42
2018-02-24T22:00:05.596Z,43
2018-02-24T22:15:37.445Z,44
2018-02-24T22:30:06.170Z,43
2018-02-24T22:45:04.612Z,44
2018-02-24T23:00:04.584Z,43
2018-02-24T23:15:05.036Z,44
2018-02-24T23:30:05.320Z,43
2018-02-24T23:45:04.892Z,44
